Terminal Aerodrome Forecast
Issued by NWS

Home | Current Version | Previous Version | Text Only | Print | Product List | Glossary On
Versions: 1 2 3 4 5 6 7 8 9 10 11 12 13 14 15 16 17 18
000
FTUS46 KLOX 202000 AAA
TAFLGB
TAF AMD
KLGB 202018Z 2020/2118 22005KT P6SM SCT023 OVC030
     FM202100 24007KT P6SM SCT030
     FM210100 30008KT P6SM SKC
     FM210500 VRB03KT P6SM OVC015=

USA.gov is the U.S. government's official web portal to all federal, state and local government web resources and services.